Terminal Aerodrome Forecast
Issued by NWS

Home | Current Version | Previous Version | Text Only | Print | Product List | Glossary Off
Versions: 1 2 3 4 5 6 7 8 9 10 11 12 13 14 15 16 17 18

000
FTUS43 KABR 152329
TAFMBG
TAF
KMBG 152329Z 1600/1624 30011KT P6SM SKC
     FM160200 20004KT P6SM SKC
     FM161600 22011KT P6SM SKC=

USA.gov is the U.S. government's official web portal to all federal, state and local government web resources and services.